createdAt,value
2019-01-14T00:01:40.935Z,2.37
2019-01-14T00:04:11.022Z,1.60
2019-01-14T00:06:41.627Z,1.73
2019-01-14T00:09:11.831Z,1.80
2019-01-14T00:11:41.897Z,1.40
2019-01-14T00:14:11.893Z,1.50
2019-01-14T00:16:42.017Z,1.67
2019-01-14T00:19:12.165Z,1.77
2019-01-14T00:21:42.274Z,1.83
2019-01-14T00:24:12.468Z,1.37
2019-01-14T00:26:42.550Z,1.60
2019-01-14T00:29:12.629Z,1.77
2019-01-14T00:31:42.894Z,1.17
2019-01-14T00:34:13.207Z,1.33
2019-01-14T00:36:43.455Z,1.50
2019-01-14T00:39:13.505Z,1.20
2019-01-14T00:41:43.562Z,1.32
2019-01-14T00:44:13.594Z,1.90
2019-01-14T00:46:43.646Z,1.80
2019-01-14T00:49:13.818Z,2.03
2019-01-14T00:51:43.854Z,1.50
2019-01-14T00:54:13.915Z,2.40
2019-01-14T00:56:43.934Z,1.70
2019-01-14T00:59:15.586Z,1.53
2019-01-14T01:01:46.730Z,1.23
2019-01-14T01:04:16.771Z,1.57
2019-01-14T01:06:47.526Z,1.20
2019-01-14T01:09:17.639Z,1.27
2019-01-14T01:11:47.746Z,1.50
2019-01-14T01:14:17.846Z,2.07
2019-01-14T01:16:47.862Z,1.30
2019-01-14T01:19:17.902Z,1.33
2019-01-14T01:21:47.886Z,1.27
2019-01-14T01:24:17.912Z,0.90
2019-01-14T01:26:47.878Z,1.47
2019-01-14T01:29:18.004Z,1.50
2019-01-14T01:31:48.176Z,1.60
2019-01-14T01:34:18.218Z,1.63
2019-01-14T01:36:48.243Z,1.43
2019-01-14T01:39:18.393Z,1.40
2019-01-14T01:41:48.447Z,1.10
2019-01-14T01:44:18.481Z,1.30
2019-01-14T01:46:48.443Z,1.50
2019-01-14T01:49:18.527Z,2.23
2019-01-14T01:51:48.554Z,1.30
2019-01-14T01:54:18.702Z,0.90
2019-01-14T01:56:48.908Z,2.30
2019-01-14T01:59:19.117Z,1.70
2019-01-14T02:01:49.100Z,1.53
2019-01-14T02:04:19.165Z,1.80
2019-01-14T02:06:49.284Z,1.90
2019-01-14T02:09:19.377Z,1.93
2019-01-14T02:11:49.493Z,1.20
2019-01-14T02:14:19.633Z,2.07
2019-01-14T02:16:49.729Z,1.20
2019-01-14T02:19:19.702Z,1.60
2019-01-14T02:21:49.806Z,1.17
2019-01-14T02:24:19.860Z,1.50
2019-01-14T02:26:49.960Z,2.17
2019-01-14T02:29:19.940Z,2.50
2019-01-14T02:31:49.898Z,1.57
2019-01-14T02:34:19.912Z,2.97
2019-01-14T02:36:49.947Z,3.23
2019-01-14T02:39:20.027Z,3.37
2019-01-14T02:41:50.082Z,1.83
2019-01-14T02:44:20.089Z,2.10
2019-01-14T02:46:50.098Z,3.13
2019-01-14T02:49:20.082Z,2.23
2019-01-14T02:51:50.118Z,2.07
2019-01-14T02:54:20.162Z,2.47
2019-01-14T02:56:50.130Z,2.70
2019-01-14T02:59:20.126Z,2.80
2019-01-14T03:01:50.104Z,3.00
2019-01-14T03:04:20.193Z,2.20
2019-01-14T03:06:57.612Z,2.87
2019-01-14T03:09:22.084Z,2.10
2019-01-14T03:11:52.229Z,2.83
2019-01-14T03:14:22.389Z,2.47
2019-01-14T03:16:52.429Z,2.33
2019-01-14T03:19:22.469Z,2.37
2019-01-14T03:21:52.462Z,2.17
2019-01-14T03:24:22.683Z,2.50
2019-01-14T03:26:52.857Z,2.07
2019-01-14T03:29:22.854Z,2.03
2019-01-14T03:31:53.180Z,2.43
2019-01-14T03:34:23.878Z,2.67
2019-01-14T03:36:53.918Z,2.30
2019-01-14T03:39:23.965Z,2.13
2019-01-14T03:41:54.089Z,2.70
2019-01-14T03:44:24.075Z,4.20
2019-01-14T03:46:54.124Z,3.00
2019-01-14T03:49:24.117Z,2.40
2019-01-14T03:51:54.283Z,2.77
2019-01-14T03:54:24.351Z,3.40
2019-01-14T03:56:54.404Z,2.57
2019-01-14T03:59:24.398Z,2.73
2019-01-14T04:01:54.474Z,3.00
2019-01-14T04:04:24.568Z,2.83
2019-01-14T04:06:54.611Z,3.47
2019-01-14T04:09:24.603Z,2.17
2019-01-14T04:11:54.656Z,2.20
2019-01-14T04:14:24.664Z,2.10
2019-01-14T04:16:54.705Z,2.70
2019-01-14T04:19:24.833Z,2.83
2019-01-14T04:21:54.942Z,1.97
2019-01-14T04:24:24.994Z,2.80
2019-01-14T04:26:54.959Z,2.33
2019-01-14T04:29:25.013Z,1.80
2019-01-14T04:31:55.093Z,2.27
2019-01-14T04:34:25.162Z,2.47
2019-01-14T04:36:55.526Z,2.07
2019-01-14T04:39:25.806Z,2.43
2019-01-14T04:41:55.874Z,2.53
2019-01-14T04:44:25.854Z,2.37
2019-01-14T04:46:57.024Z,2.23
2019-01-14T04:49:27.127Z,1.73
2019-01-14T04:51:57.139Z,2.23
2019-01-14T04:54:27.147Z,2.13
2019-01-14T04:56:57.106Z,2.03
2019-01-14T04:59:27.230Z,1.90
2019-01-14T05:01:57.227Z,2.10
2019-01-14T05:04:27.330Z,2.27
2019-01-14T05:06:57.390Z,2.72
2019-01-14T05:09:27.466Z,2.40
2019-01-14T05:11:57.681Z,2.07
2019-01-14T05:14:27.896Z,1.53
2019-01-14T05:16:58.020Z,2.13
2019-01-14T05:19:28.111Z,2.73
2019-01-14T05:21:58.169Z,1.63
2019-01-14T05:24:28.151Z,1.90
2019-01-14T05:26:58.191Z,2.55
2019-01-14T05:29:28.262Z,2.10
2019-01-14T05:31:58.367Z,2.00
2019-01-14T05:34:28.573Z,1.97
2019-01-14T05:36:58.577Z,2.63
2019-01-14T05:39:28.575Z,1.63
2019-01-14T05:41:58.575Z,2.27
2019-01-14T05:44:28.620Z,1.97
2019-01-14T05:46:58.657Z,2.30
2019-01-14T05:49:28.868Z,2.93
2019-01-14T05:51:58.886Z,1.60
2019-01-14T05:54:28.914Z,1.67
2019-01-14T05:56:59.074Z,1.50
2019-01-14T05:59:29.234Z,2.27
2019-01-14T06:01:59.445Z,2.03
2019-01-14T06:04:29.665Z,2.10
2019-01-14T06:06:59.741Z,2.17
2019-01-14T06:09:29.793Z,2.53
2019-01-14T06:11:59.770Z,2.40
2019-01-14T06:14:29.866Z,1.70
2019-01-14T06:17:00.956Z,1.47
2019-01-14T06:19:32.178Z,1.83
2019-01-14T06:22:02.381Z,1.33
2019-01-14T06:24:32.416Z,1.50
2019-01-14T06:27:02.497Z,1.33
2019-01-14T06:29:32.586Z,1.63
2019-01-14T06:32:02.669Z,1.07
2019-01-14T06:34:32.641Z,1.37
2019-01-14T06:37:02.792Z,1.43
2019-01-14T06:39:32.819Z,2.03
2019-01-14T06:42:07.398Z,1.03
2019-01-14T06:44:34.707Z,1.33
2019-01-14T06:47:04.731Z,0.97
2019-01-14T06:49:34.929Z,1.47
2019-01-14T06:52:05.499Z,1.60
2019-01-14T06:54:35.676Z,1.40
2019-01-14T06:57:05.676Z,1.20
2019-01-14T06:59:35.697Z,0.60
2019-01-14T07:02:05.827Z,1.53
2019-01-14T07:04:35.985Z,1.23
2019-01-14T07:07:06.371Z,0.73
2019-01-14T07:09:36.753Z,1.10
2019-01-14T07:12:06.826Z,0.67
2019-01-14T07:14:36.900Z,0.63
2019-01-14T07:17:07.170Z,1.07
2019-01-14T07:19:37.285Z,1.13
2019-01-14T07:22:07.371Z,1.37
2019-01-14T07:24:37.590Z,0.80
2019-01-14T07:27:07.608Z,0.97
2019-01-14T07:29:37.590Z,1.07
2019-01-14T07:32:07.791Z,1.03
2019-01-14T07:34:37.892Z,0.87
2019-01-14T07:37:07.914Z,0.67
2019-01-14T07:39:37.928Z,1.67
2019-01-14T07:42:07.998Z,0.73
2019-01-14T07:44:38.120Z,0.80
2019-01-14T07:47:08.209Z,1.70
2019-01-14T07:49:38.310Z,0.50
2019-01-14T07:52:08.406Z,0.70
2019-01-14T07:54:38.389Z,0.70
2019-01-14T07:57:08.393Z,0.50
2019-01-14T07:59:38.510Z,0.77
2019-01-14T08:02:08.667Z,1.23
2019-01-14T08:04:38.739Z,0.80
2019-01-14T08:07:08.845Z,0.70
2019-01-14T08:09:38.911Z,0.67
2019-01-14T08:12:09.012Z,1.43
2019-01-14T08:14:39.164Z,0.93
2019-01-14T08:17:09.297Z,0.80
2019-01-14T08:19:39.581Z,0.93
2019-01-14T08:22:09.647Z,0.80
2019-01-14T08:24:39.751Z,1.20
2019-01-14T08:27:09.831Z,0.70
2019-01-14T08:29:39.970Z,0.90
2019-01-14T08:32:10.045Z,1.17
2019-01-14T08:34:40.115Z,0.80
2019-01-14T08:37:10.194Z,0.87
2019-01-14T08:39:40.306Z,1.00
2019-01-14T08:42:10.893Z,0.90
2019-01-14T08:44:42.526Z,1.10
2019-01-14T08:47:12.620Z,0.60
2019-01-14T08:49:42.711Z,0.97
2019-01-14T08:52:12.773Z,1.37
2019-01-14T08:54:42.862Z,1.10
2019-01-14T08:57:13.059Z,1.57
2019-01-14T08:59:44.048Z,1.20
2019-01-14T09:02:14.149Z,1.10
2019-01-14T09:04:44.241Z,1.10
2019-01-14T09:07:14.398Z,1.53
2019-01-14T09:09:44.475Z,1.53
2019-01-14T09:12:14.490Z,1.90
2019-01-14T09:14:44.582Z,1.50
2019-01-14T09:17:14.729Z,1.17
2019-01-14T09:19:45.033Z,1.20
2019-01-14T09:22:15.178Z,1.23
2019-01-14T09:24:45.286Z,1.30
2019-01-14T09:27:15.390Z,1.20
2019-01-14T09:29:45.422Z,1.40
2019-01-14T09:32:15.590Z,0.90
2019-01-14T09:34:45.867Z,0.67
2019-01-14T09:37:15.938Z,1.17
2019-01-14T09:39:45.967Z,1.13
2019-01-14T09:42:17.805Z,1.50
2019-01-14T09:44:48.689Z,1.63
2019-01-14T09:47:18.768Z,1.77
2019-01-14T09:49:48.961Z,1.23
2019-01-14T09:52:19.131Z,1.23
2019-01-14T09:54:49.205Z,1.70
2019-01-14T09:57:19.253Z,1.87
2019-01-14T09:59:49.384Z,1.03
2019-01-14T10:02:19.593Z,1.07
2019-01-14T10:04:49.643Z,1.03
2019-01-14T10:07:19.785Z,0.90
2019-01-14T10:09:49.897Z,0.80
2019-01-14T10:12:20.158Z,0.43
2019-01-14T10:14:50.390Z,0.53
2019-01-14T10:17:24.764Z,0.80
2019-01-14T10:19:54.845Z,0.57
2019-01-14T10:22:26.062Z,0.90
2019-01-14T10:24:56.231Z,1.10
2019-01-14T10:27:26.365Z,0.90
2019-01-14T10:29:56.479Z,0.63
2019-01-14T10:32:26.601Z,1.00
2019-01-14T10:34:56.677Z,1.43
2019-01-14T10:37:26.820Z,1.10
2019-01-14T10:39:56.856Z,0.90
2019-01-14T10:42:26.894Z,1.10
2019-01-14T10:44:56.973Z,0.57
2019-01-14T10:47:28.163Z,1.10
2019-01-14T10:49:58.226Z,0.73
2019-01-14T10:52:29.277Z,0.50
2019-01-14T10:54:59.416Z,0.70
2019-01-14T10:57:29.648Z,0.77
2019-01-14T10:59:59.957Z,0.73
2019-01-14T11:02:31.650Z,1.07
2019-01-14T11:05:01.864Z,0.90
2019-01-14T11:07:32.073Z,1.23
2019-01-14T11:10:02.363Z,1.03
2019-01-14T11:12:32.728Z,0.20
2019-01-14T11:15:05.505Z,0.97
2019-01-14T11:17:35.631Z,0.43
2019-01-14T11:20:06.715Z,1.30
2019-01-14T11:22:42.278Z,1.13
2019-01-14T11:25:20.370Z,1.70
2019-01-14T11:27:51.650Z,0.90
2019-01-14T11:30:23.191Z,1.20
2019-01-14T11:32:53.394Z,0.87
2019-01-14T11:35:23.588Z,0.90
2019-01-14T11:37:53.742Z,0.90
2019-01-14T11:40:42.985Z,1.20
2019-01-14T11:43:13.107Z,1.23
2019-01-14T11:45:43.628Z,1.33
2019-01-14T11:48:13.735Z,1.03
2019-01-14T11:50:43.762Z,0.63
2019-01-14T11:53:13.934Z,1.20
2019-01-14T11:55:44.069Z,1.20
2019-01-14T11:58:14.233Z,1.50
2019-01-14T12:00:44.447Z,1.70
2019-01-14T12:03:14.488Z,1.90
2019-01-14T12:05:44.624Z,1.20
2019-01-14T12:08:14.813Z,1.13
2019-01-14T12:10:45.182Z,1.50
2019-01-14T12:13:15.366Z,2.50
2019-01-14T12:15:46.005Z,1.63
2019-01-14T12:18:16.349Z,1.93
2019-01-14T12:20:47.590Z,1.50
2019-01-14T12:23:17.652Z,1.67
2019-01-14T12:25:47.733Z,1.83
2019-01-14T12:28:17.859Z,1.80
2019-01-14T12:30:47.962Z,1.00
2019-01-14T12:33:18.058Z,1.63
2019-01-14T12:35:48.288Z,1.07
2019-01-14T12:38:18.292Z,2.63
2019-01-14T12:40:48.297Z,1.50
2019-01-14T12:43:20.119Z,2.40
2019-01-14T12:45:50.467Z,1.50
2019-01-14T12:48:20.739Z,2.07
2019-01-14T12:50:51.180Z,1.97
2019-01-14T12:53:21.329Z,1.40
2019-01-14T12:55:51.444Z,2.47
2019-01-14T12:58:21.638Z,1.47
2019-01-14T13:00:54.047Z,1.53
2019-01-14T13:03:24.483Z,1.80
2019-01-14T13:05:54.745Z,2.43
2019-01-14T13:08:25.719Z,2.00
2019-01-14T13:10:56.238Z,1.90
2019-01-14T13:13:26.433Z,1.77
2019-01-14T13:15:56.815Z,1.87
2019-01-14T13:18:27.056Z,1.93
2019-01-14T13:20:57.165Z,1.70
2019-01-14T13:23:27.231Z,1.60
2019-01-14T13:25:57.230Z,1.03
2019-01-14T13:28:27.306Z,2.30
2019-01-14T13:30:57.516Z,1.47
2019-01-14T13:33:27.656Z,1.90
2019-01-14T13:35:57.766Z,1.80
2019-01-14T13:38:27.811Z,1.57
2019-01-14T13:40:57.925Z,1.80
2019-01-14T13:43:28.014Z,2.13
2019-01-14T13:45:58.038Z,2.37
2019-01-14T13:48:28.111Z,1.77
2019-01-14T13:50:58.181Z,1.73
2019-01-14T13:53:28.198Z,1.83
2019-01-14T13:55:59.561Z,1.67
2019-01-14T13:58:29.692Z,1.90
2019-01-14T14:00:59.802Z,2.00
2019-01-14T14:03:29.799Z,1.73
2019-01-14T14:05:59.910Z,1.83
2019-01-14T14:08:29.927Z,1.70
2019-01-14T14:11:00.000Z,2.23
2019-01-14T14:13:30.174Z,2.53
2019-01-14T14:16:00.237Z,1.00
2019-01-14T14:18:30.237Z,1.13
2019-01-14T14:21:00.250Z,1.40
2019-01-14T14:23:31.291Z,1.20
2019-01-14T14:26:01.423Z,1.97
2019-01-14T14:28:31.534Z,1.07
2019-01-14T14:31:02.476Z,1.87
2019-01-14T14:33:32.547Z,2.10
2019-01-14T14:36:02.660Z,1.37
2019-01-14T14:38:32.820Z,2.70
2019-01-14T14:41:03.753Z,1.90
2019-01-14T14:43:33.849Z,1.90
2019-01-14T14:46:04.619Z,1.92
2019-01-14T14:48:37.840Z,1.60
2019-01-14T14:51:07.947Z,1.33
2019-01-14T14:53:37.914Z,1.43
2019-01-14T14:56:08.066Z,1.50
2019-01-14T14:58:38.156Z,1.57
2019-01-14T15:01:08.297Z,2.40
2019-01-14T15:03:38.261Z,1.63
2019-01-14T15:06:08.320Z,2.23
2019-01-14T15:08:38.406Z,1.50
2019-01-14T15:11:08.685Z,1.50
2019-01-14T15:13:38.763Z,2.37
2019-01-14T15:16:08.881Z,1.63
2019-01-14T15:18:38.888Z,2.10
2019-01-14T15:21:08.876Z,2.20
2019-01-14T15:23:38.973Z,2.17
2019-01-14T15:26:23.691Z,2.30
2019-01-14T15:28:53.198Z,2.10
2019-01-14T15:31:34.352Z,2.25
2019-01-14T15:34:05.081Z,1.80
2019-01-14T15:36:35.256Z,1.83
2019-01-14T15:39:07.335Z,2.13
2019-01-14T15:41:37.406Z,1.30
2019-01-14T15:44:07.472Z,2.00
2019-01-14T15:46:38.483Z,2.00
2019-01-14T15:49:09.526Z,2.27
2019-01-14T15:51:39.588Z,1.80
2019-01-14T15:54:09.697Z,2.20
2019-01-14T15:56:39.867Z,1.63
2019-01-14T15:59:09.916Z,1.40
2019-01-14T16:01:39.987Z,1.73
2019-01-14T16:04:10.008Z,1.77
2019-01-14T16:06:40.066Z,1.60
2019-01-14T16:09:10.146Z,2.03
2019-01-14T16:11:40.187Z,1.77
2019-01-14T16:14:10.239Z,1.67
2019-01-14T16:16:40.294Z,2.60
2019-01-14T16:19:10.336Z,2.37
2019-01-14T16:21:40.459Z,2.40
2019-01-14T16:24:10.474Z,1.87
2019-01-14T16:26:40.629Z,1.97
2019-01-14T16:29:10.694Z,1.87
2019-01-14T16:31:41.747Z,1.97
2019-01-14T16:34:11.834Z,1.67
2019-01-14T16:36:41.900Z,2.47
2019-01-14T16:39:11.996Z,2.30
2019-01-14T16:41:42.046Z,2.03
2019-01-14T16:44:12.095Z,1.43
2019-01-14T16:46:45.222Z,1.87
2019-01-14T16:49:15.224Z,1.93
2019-01-14T16:51:45.177Z,1.60
2019-01-14T16:54:15.362Z,1.52
2019-01-14T16:56:45.377Z,2.10
2019-01-14T16:59:15.541Z,1.90
2019-01-14T17:01:45.548Z,2.37
2019-01-14T17:04:15.609Z,1.77
2019-01-14T17:06:45.690Z,1.47
2019-01-14T17:09:17.447Z,2.17
2019-01-14T17:11:47.486Z,2.80
2019-01-14T17:14:17.519Z,2.70
2019-01-14T17:16:47.568Z,1.70
2019-01-14T17:19:17.726Z,2.10
2019-01-14T17:21:49.038Z,3.30
2019-01-14T17:24:19.123Z,2.17
2019-01-14T17:26:50.781Z,2.57
2019-01-14T17:29:20.853Z,2.03
2019-01-14T17:31:51.601Z,1.93
2019-01-14T17:34:22.083Z,2.40
2019-01-14T17:36:52.097Z,2.27
2019-01-14T17:39:22.201Z,2.40
2019-01-14T17:41:52.659Z,2.23
2019-01-14T17:44:23.016Z,2.30
2019-01-14T17:46:53.209Z,1.70
2019-01-14T17:49:23.479Z,2.17
2019-01-14T17:51:54.025Z,2.70
2019-01-14T17:54:24.216Z,1.87
2019-01-14T17:56:54.563Z,2.10
2019-01-14T17:59:24.730Z,1.50
2019-01-14T18:01:54.842Z,2.27
2019-01-14T18:04:25.142Z,1.83
2019-01-14T18:06:55.239Z,2.43
2019-01-14T18:09:25.628Z,1.70
2019-01-14T18:11:55.986Z,2.50
2019-01-14T18:14:26.059Z,2.23
2019-01-14T18:16:56.367Z,2.40
2019-01-14T18:19:26.433Z,1.93
2019-01-14T18:21:56.602Z,1.40
2019-01-14T18:24:28.449Z,2.53
2019-01-14T18:27:00.301Z,2.13
2019-01-14T18:29:30.363Z,1.67
2019-01-14T18:32:00.445Z,1.90
2019-01-14T18:34:30.446Z,2.00
2019-01-14T18:37:00.478Z,2.43
2019-01-14T18:39:30.538Z,2.37
2019-01-14T18:42:00.908Z,2.20
2019-01-14T18:44:30.967Z,2.33
2019-01-14T18:47:02.528Z,1.53
2019-01-14T18:49:34.678Z,1.67
2019-01-14T18:52:04.873Z,1.90
2019-01-14T18:54:34.966Z,1.97
2019-01-14T18:57:05.263Z,2.40
2019-01-14T18:59:35.349Z,2.27
2019-01-14T19:02:06.044Z,2.20
2019-01-14T19:04:36.400Z,1.50
2019-01-14T19:07:06.655Z,2.77
2019-01-14T19:09:36.887Z,2.10
2019-01-14T19:12:07.302Z,2.03
2019-01-14T19:14:37.345Z,1.57
2019-01-14T19:17:08.949Z,2.07
2019-01-14T19:19:39.129Z,2.10
2019-01-14T19:22:09.255Z,1.53
2019-01-14T19:24:39.476Z,1.80
2019-01-14T19:27:16.452Z,1.70
2019-01-14T19:29:42.890Z,1.93
2019-01-14T19:32:13.062Z,1.30
2019-01-14T19:34:43.359Z,1.40
2019-01-14T19:37:13.482Z,1.90
2019-01-14T19:39:46.182Z,1.50
2019-01-14T19:42:16.299Z,2.00
2019-01-14T19:44:48.834Z,1.43
2019-01-14T19:47:21.126Z,1.70
2019-01-14T19:49:51.185Z,2.00
2019-01-14T19:52:23.218Z,2.20
2019-01-14T19:54:53.594Z,1.80
2019-01-14T19:57:25.033Z,1.60
2019-01-14T19:59:55.261Z,1.37
2019-01-14T20:02:26.878Z,1.57
2019-01-14T20:04:57.131Z,1.77
2019-01-14T20:07:28.026Z,0.90
2019-01-14T20:10:01.696Z,1.53
2019-01-14T20:12:33.507Z,2.50
2019-01-14T20:15:05.198Z,1.63
2019-01-14T20:17:35.218Z,1.80
2019-01-14T20:20:05.680Z,1.17
2019-01-14T20:22:35.747Z,1.97
2019-01-14T20:25:06.677Z,2.20
2019-01-14T20:27:36.824Z,1.80
2019-01-14T20:30:09.455Z,2.13
2019-01-14T20:32:39.578Z,1.77
2019-01-14T20:35:09.765Z,1.17
2019-01-14T20:37:39.866Z,1.33
2019-01-14T20:40:10.188Z,1.97
2019-01-14T20:42:41.165Z,1.43
2019-01-14T20:45:11.800Z,2.23
2019-01-14T20:47:42.800Z,1.50
2019-01-14T20:50:13.983Z,2.27
2019-01-14T20:52:44.171Z,1.90
2019-01-14T20:55:14.333Z,1.42
2019-01-14T20:57:44.987Z,1.47
2019-01-14T21:00:16.469Z,1.03
2019-01-14T21:02:46.751Z,1.17
2019-01-14T21:05:17.558Z,1.70
2019-01-14T21:07:48.056Z,1.83
2019-01-14T21:10:18.388Z,1.63
2019-01-14T21:12:48.525Z,1.63
2019-01-14T21:15:19.812Z,1.50
2019-01-14T21:17:51.213Z,1.80
2019-01-14T21:20:23.830Z,1.43
2019-01-14T21:22:54.764Z,1.00
2019-01-14T21:25:25.075Z,1.43
2019-01-14T21:27:55.176Z,1.70
2019-01-14T21:30:27.364Z,1.13
2019-01-14T21:32:57.491Z,1.20
2019-01-14T21:35:27.724Z,1.77
2019-01-14T21:37:58.893Z,1.90
2019-01-14T21:40:29.032Z,1.33
2019-01-14T21:42:59.132Z,1.20
2019-01-14T21:45:29.556Z,1.60
2019-01-14T21:48:00.866Z,1.70
2019-01-14T21:50:32.028Z,1.20
2019-01-14T21:53:02.170Z,1.50
2019-01-14T21:55:32.355Z,1.57
2019-01-14T21:58:02.987Z,1.10
2019-01-14T22:00:33.257Z,1.40
2019-01-14T22:03:05.001Z,1.70
2019-01-14T22:05:35.497Z,1.33
2019-01-14T22:08:05.624Z,1.00
2019-01-14T22:10:36.107Z,1.67
2019-01-14T22:13:16.862Z,1.27
2019-01-14T22:15:47.113Z,2.13
2019-01-14T22:18:18.149Z,1.93
2019-01-14T22:20:48.342Z,2.07
2019-01-14T22:23:20.296Z,1.40
2019-01-14T22:25:50.382Z,1.57
2019-01-14T22:28:20.704Z,1.17
2019-01-14T22:30:50.909Z,1.47
2019-01-14T22:33:20.913Z,1.23
2019-01-14T22:35:52.088Z,1.13
2019-01-14T22:38:22.728Z,1.47
2019-01-14T22:40:54.174Z,1.60
2019-01-14T22:43:25.503Z,1.20
2019-01-14T22:45:55.670Z,1.40
2019-01-14T22:48:25.779Z,1.33
2019-01-14T22:50:55.951Z,1.00
2019-01-14T22:53:26.203Z,1.03
2019-01-14T22:55:56.390Z,1.43
2019-01-14T22:58:26.516Z,1.03
2019-01-14T23:01:15.314Z,1.33
2019-01-14T23:03:46.912Z,1.72
2019-01-14T23:06:17.000Z,2.20
2019-01-14T23:08:47.082Z,1.13
2019-01-14T23:11:17.141Z,1.40
2019-01-14T23:13:48.834Z,1.80
2019-01-14T23:16:19.041Z,1.40
2019-01-14T23:18:49.182Z,1.50
2019-01-14T23:21:19.276Z,1.37
2019-01-14T23:23:49.386Z,1.37
2019-01-14T23:26:19.419Z,1.30
2019-01-14T23:28:49.507Z,1.63
2019-01-14T23:31:19.597Z,1.00
2019-01-14T23:33:49.906Z,1.40
2019-01-14T23:36:19.969Z,1.07
2019-01-14T23:38:51.159Z,1.87
2019-01-14T23:41:21.234Z,1.50
2019-01-14T23:43:51.366Z,1.30
2019-01-14T23:46:21.493Z,1.50
2019-01-14T23:48:51.661Z,1.67
2019-01-14T23:51:21.742Z,1.37
2019-01-14T23:53:51.957Z,2.07
2019-01-14T23:56:22.030Z,0.93
2019-01-14T23:58:52.147Z,1.03
